Time;durP1;ratioP1;P1;durP2;ratioP2;P2;SDS_P1;SDS_P2;PMS_P1;PMS_P2;Temp;Humidity;BMP_temperature;BMP_pressure;BME280_temperature;BME280_humidity;BME280_pressure;Samples;Min_cycle;Max_cycle;Signal;HPM_P1;HPM_P2
2023/10/15 00:00:37;;;;;;;56.20;2.50;;;;;;;;;;5051094;28;20527;-73
2023/10/15 00:03:07;;;;;;;56.80;3.00;;;;;;;;;;5050647;28;20466;-72
2023/10/15 00:05:35;;;;;;;56.50;2.70;;;;;;;;;;5051152;28;20816;-72
2023/10/15 00:08:02;;;;;;;56.57;2.40;;;;;;;;;;5050990;28;20445;-72
2023/10/15 00:10:31;;;;;;;55.93;2.20;;;;;;;;;;5050942;28;20937;-72
2023/10/15 00:12:59;;;;;;;55.93;2.40;;;;;;;;;;5051034;28;20449;-72
2023/10/15 00:15:28;;;;;;;56.37;2.50;;;;;;;;;;5050923;28;20940;-73
2023/10/15 00:17:58;;;;;;;56.57;2.40;;;;;;;;;;5051010;28;20449;-73
2023/10/15 00:20:31;;;;;;;56.17;2.60;;;;;;;;;;5050760;28;20828;-72
2023/10/15 00:22:58;;;;;;;56.00;2.37;;;;;;;;;;5050886;28;20621;-73
2023/10/15 00:25:26;;;;;;;56.07;2.60;;;;;;;;;;5050775;28;20456;-73
2023/10/15 00:27:54;;;;;;;56.23;2.80;;;;;;;;;;5050995;28;20876;-72
2023/10/15 00:30:21;;;;;;;56.50;2.20;;;;;;;;;;5050583;28;20547;-72
2023/10/15 00:32:52;;;;;;;55.87;2.40;;;;;;;;;;5050943;28;20943;-72
2023/10/15 00:35:20;;;;;;;55.30;2.30;;;;;;;;;;5050726;28;20927;-72
2023/10/15 00:37:54;;;;;;;56.07;2.60;;;;;;;;;;5051039;28;20445;-72
2023/10/15 00:40:21;;;;;;;56.80;2.50;;;;;;;;;;5050664;28;20882;-72
2023/10/15 00:42:49;;;;;;;56.33;2.30;;;;;;;;;;5050474;28;20492;-72
2023/10/15 00:45:18;;;;;;;55.90;2.47;;;;;;;;;;5050686;28;20547;-72
2023/10/15 00:47:45;;;;;;;57.50;2.73;;;;;;;;;;5050531;28;20445;-72
2023/10/15 00:50:14;;;;;;;56.70;2.80;;;;;;;;;;5050562;28;20460;-72
2023/10/15 00:52:43;;;;;;;55.70;2.60;;;;;;;;;;5050724;28;20955;-72
2023/10/15 00:55:17;;;;;;;56.17;2.60;;;;;;;;;;5050409;28;20444;-72
2023/10/15 00:57:46;;;;;;;56.23;2.50;;;;;;;;;;5050711;28;20937;-72
2023/10/15 01:02:57;;;;;;;56.57;2.40;;;;;;;;;;5049941;28;20483;-72
2023/10/15 01:05:25;;;;;;;56.30;2.60;;;;;;;;;;5050498;28;20475;-72
2023/10/15 01:07:54;;;;;;;56.33;2.50;;;;;;;;;;5050410;28;20480;-72
2023/10/15 01:10:31;;;;;;;56.67;2.50;;;;;;;;;;5050110;28;20549;-72
2023/10/15 01:13:10;;;;;;;56.57;2.40;;;;;;;;;;5051460;28;20452;-72
2023/10/15 01:15:42;;;;;;;56.03;2.40;;;;;;;;;;5054318;28;20531;-72
2023/10/15 01:18:10;;;;;;;55.83;2.20;;;;;;;;;;5054153;28;20994;-72
2023/10/15 01:20:40;;;;;;;56.47;2.80;;;;;;;;;;5054058;28;20457;-73
2023/10/15 01:23:07;;;;;;;56.60;2.40;;;;;;;;;;5053779;28;20894;-72
2023/10/15 01:25:45;;;;;;;56.47;2.50;;;;;;;;;;5054180;28;20448;-72
2023/10/15 01:28:13;;;;;;;56.30;2.30;;;;;;;;;;5054000;28;20444;-72
2023/10/15 01:30:41;;;;;;;56.77;2.93;;;;;;;;;;5053876;28;20452;-72
2023/10/15 01:33:10;;;;;;;56.53;2.30;;;;;;;;;;5053618;28;20448;-72
2023/10/15 01:35:38;;;;;;;55.67;2.50;;;;;;;;;;5054068;28;20797;-72
2023/10/15 01:38:10;;;;;;;56.27;2.10;;;;;;;;;;5053856;28;20697;-72
2023/10/15 01:40:44;;;;;;;55.87;2.50;;;;;;;;;;5053768;28;20795;-72
2023/10/15 01:43:14;;;;;;;56.60;2.27;;;;;;;;;;5053523;28;20611;-72
2023/10/15 01:45:47;;;;;;;55.97;2.40;;;;;;;;;;5052917;28;20810;-72
2023/10/15 01:48:17;;;;;;;56.40;2.40;;;;;;;;;;5053647;28;20859;-72
2023/10/15 01:50:49;;;;;;;56.27;2.30;;;;;;;;;;5053545;28;20940;-72
2023/10/15 01:53:16;;;;;;;56.17;2.37;;;;;;;;;;5053775;28;20796;-72
2023/10/15 01:55:54;;;;;;;55.97;2.33;;;;;;;;;;5053342;28;20535;-73
2023/10/15 01:58:24;;;;;;;56.63;2.47;;;;;;;;;;5053541;28;20482;-72
2023/10/15 02:00:52;;;;;;;55.67;2.30;;;;;;;;;;5053395;28;20555;-72
2023/10/15 02:03:19;;;;;;;56.47;2.40;;;;;;;;;;5053112;28;20999;-72
2023/10/15 02:05:46;;;;;;;56.23;2.23;;;;;;;;;;5053300;28;20458;-72
2023/10/15 02:08:16;;;;;;;56.07;2.23;;;;;;;;;;5053527;28;20445;-72
2023/10/15 02:10:47;;;;;;;55.93;2.27;;;;;;;;;;5053332;28;20456;-72
2023/10/15 02:13:15;;;;;;;56.20;2.20;;;;;;;;;;5053345;28;20451;-72
2023/10/15 02:15:43;;;;;;;56.50;2.40;;;;;;;;;;5053135;28;20448;-72
2023/10/15 02:18:13;;;;;;;56.23;2.50;;;;;;;;;;5053067;28;20458;-72
2023/10/15 02:20:46;;;;;;;56.27;2.20;;;;;;;;;;5052925;28;20864;-72
2023/10/15 02:23:15;;;;;;;56.33;2.37;;;;;;;;;;5052686;28;20997;-72
2023/10/15 02:25:46;;;;;;;55.97;2.17;;;;;;;;;;5052161;28;20850;-72
2023/10/15 02:28:20;;;;;;;56.70;2.50;;;;;;;;;;5052928;28;20456;-72
2023/10/15 02:30:47;;;;;;;56.50;2.53;;;;;;;;;;5052799;28;20449;-72
2023/10/15 02:33:18;;;;;;;56.70;2.50;;;;;;;;;;5052577;28;20444;-72
2023/10/15 02:35:47;;;;;;;56.50;2.63;;;;;;;;;;5052875;28;20488;-72
2023/10/15 02:38:15;;;;;;;56.07;2.57;;;;;;;;;;5052699;28;20608;-70
2023/10/15 02:43:27;;;;;;;55.83;2.40;;;;;;;;;;5052217;28;20481;-72
2023/10/15 02:45:55;;;;;;;55.77;2.60;;;;;;;;;;5052575;28;20457;-72
2023/10/15 02:48:23;;;;;;;55.97;2.20;;;;;;;;;;5052396;28;20468;-72
2023/10/15 02:51:00;;;;;;;56.60;2.60;;;;;;;;;;5052577;28;20492;-71
2023/10/15 02:53:27;;;;;;;56.27;2.30;;;;;;;;;;5052466;28;20737;-73
2023/10/15 02:55:58;;;;;;;55.77;2.57;;;;;;;;;;5052353;28;20455;-72
2023/10/15 02:58:31;;;;;;;56.30;2.77;;;;;;;;;;5052252;28;21006;-72
2023/10/15 03:01:06;;;;;;;56.80;2.50;;;;;;;;;;5051946;28;21005;-73
2023/10/15 03:03:34;;;;;;;56.30;2.57;;;;;;;;;;5052059;28;20515;-72
2023/10/15 03:06:02;;;;;;;55.60;2.30;;;;;;;;;;5052091;28;21102;-73
2023/10/15 03:08:33;;;;;;;60.73;3.23;;;;;;;;;;5052131;28;20491;-72
2023/10/15 03:11:07;;;;;;;55.87;2.30;;;;;;;;;;5052129;28;20456;-72
2023/10/15 03:13:44;;;;;;;55.93;2.20;;;;;;;;;;5052166;28;20471;-73
2023/10/15 03:16:11;;;;;;;56.00;2.30;;;;;;;;;;5052088;28;20945;-72
2023/10/15 03:18:39;;;;;;;56.47;2.87;;;;;;;;;;5051815;28;20471;-72
2023/10/15 03:21:14;;;;;;;56.23;2.30;;;;;;;;;;5051739;28;20449;-72
2023/10/15 03:23:42;;;;;;;56.30;2.30;;;;;;;;;;5051903;28;20480;-72
2023/10/15 03:26:17;;;;;;;55.90;2.37;;;;;;;;;;5051852;28;20448;-72
2023/10/15 03:28:46;;;;;;;56.10;2.13;;;;;;;;;;5051494;28;20468;-72
2023/10/15 03:31:16;;;;;;;56.50;2.30;;;;;;;;;;5051739;28;20452;-72
2023/10/15 03:34:04;;;;;;;56.07;2.30;;;;;;;;;;5051507;28;20762;-73
2023/10/15 03:36:31;;;;;;;56.17;2.40;;;;;;;;;;5051531;28;20441;-72
2023/10/15 03:38:58;;;;;;;56.00;2.37;;;;;;;;;;5051452;28;20483;-72
2023/10/15 03:41:28;;;;;;;56.40;2.60;;;;;;;;;;5051611;28;20444;-72
2023/10/15 03:44:03;;;;;;;56.03;2.33;;;;;;;;;;5051132;28;20490;-72
2023/10/15 03:46:33;;;;;;;56.07;2.50;;;;;;;;;;5051449;28;20452;-73
2023/10/15 03:49:04;;;;;;;56.17;2.53;;;;;;;;;;5051450;28;20472;-72
2023/10/15 03:51:31;;;;;;;56.00;2.30;;;;;;;;;;5051507;28;20453;-72
2023/10/15 03:54:06;;;;;;;56.10;2.10;;;;;;;;;;5051650;28;20970;-72
2023/10/15 03:56:34;;;;;;;56.10;2.47;;;;;;;;;;5051345;28;20452;-72
2023/10/15 03:59:02;;;;;;;55.57;2.30;;;;;;;;;;5051162;28;21068;-72
2023/10/15 04:01:30;;;;;;;56.27;2.40;;;;;;;;;;5051273;28;20459;-73
2023/10/15 04:04:00;;;;;;;57.17;2.20;;;;;;;;;;5051163;28;20527;-72
2023/10/15 04:06:29;;;;;;;56.10;2.20;;;;;;;;;;5051183;28;20477;-72
2023/10/15 04:09:10;;;;;;;55.77;2.17;;;;;;;;;;5050839;28;20468;-70
2023/10/15 04:11:42;;;;;;;55.83;2.10;;;;;;;;;;5051113;28;20853;-70
2023/10/15 04:14:17;;;;;;;56.00;2.03;;;;;;;;;;5051167;28;20519;-71
2023/10/15 04:16:44;;;;;;;55.90;2.00;;;;;;;;;;5050940;28;20543;-70
2023/10/15 04:19:16;;;;;;;56.60;2.57;;;;;;;;;;5050593;28;21087;-71
2023/10/15 04:21:43;;;;;;;55.60;2.10;;;;;;;;;;5050721;28;20452;-72
2023/10/15 04:24:12;;;;;;;57.33;2.83;;;;;;;;;;5050939;28;20488;-71
2023/10/15 04:26:42;;;;;;;55.77;2.00;;;;;;;;;;5050923;28;20508;-71
2023/10/15 04:29:17;;;;;;;56.23;2.10;;;;;;;;;;5050364;28;20472;-72
2023/10/15 04:31:56;;;;;;;56.20;2.00;;;;;;;;;;5050599;28;21019;-71
2023/10/15 04:34:25;;;;;;;55.90;2.00;;;;;;;;;;5051001;28;20854;-72
2023/10/15 04:36:54;;;;;;;55.87;2.20;;;;;;;;;;5050830;28;20455;-72
2023/10/15 04:39:22;;;;;;;56.43;2.20;;;;;;;;;;5050895;28;20468;-71
2023/10/15 04:41:50;;;;;;;56.23;2.20;;;;;;;;;;5050561;28;20506;-71
2023/10/15 04:44:25;;;;;;;55.83;2.00;;;;;;;;;;5050556;28;20535;-71
2023/10/15 04:46:55;;;;;;;56.03;1.97;;;;;;;;;;5050710;28;21069;-71
2023/10/15 04:49:23;;;;;;;56.03;1.90;;;;;;;;;;5054021;28;20543;-71
2023/10/15 04:51:52;;;;;;;56.10;2.30;;;;;;;;;;5054696;28;20457;-72
2023/10/15 04:54:23;;;;;;;56.00;2.10;;;;;;;;;;5054502;28;20498;-71
2023/10/15 04:56:50;;;;;;;56.07;2.07;;;;;;;;;;5054312;28;20884;-71
2023/10/15 04:59:18;;;;;;;56.13;2.30;;;;;;;;;;5054366;28;20468;-71
2023/10/15 05:01:48;;;;;;;55.97;2.30;;;;;;;;;;5054272;28;20945;-71
2023/10/15 05:04:16;;;;;;;55.97;2.20;;;;;;;;;;5066898;28;21094;-71
2023/10/15 05:06:43;;;;;;;55.93;2.00;;;;;;;;;;5071850;28;20470;-71
2023/10/15 05:09:20;;;;;;;55.93;1.93;;;;;;;;;;5070914;28;21097;-71
2023/10/15 05:11:49;;;;;;;55.87;2.07;;;;;;;;;;5071472;28;20486;-71
2023/10/15 05:14:17;;;;;;;55.97;1.90;;;;;;;;;;5071194;28;20478;-71
2023/10/15 05:16:47;;;;;;;55.87;1.97;;;;;;;;;;5072788;28;20528;-71
2023/10/15 05:19:17;;;;;;;55.80;2.10;;;;;;;;;;5072453;28;20496;-71
2023/10/15 05:21:46;;;;;;;56.30;2.23;;;;;;;;;;5070474;28;20463;-71
2023/10/15 05:24:18;;;;;;;56.17;2.30;;;;;;;;;;5071858;28;20484;-71
2023/10/15 05:26:46;;;;;;;56.17;2.40;;;;;;;;;;5073203;28;20487;-71
2023/10/15 05:29:13;;;;;;;56.47;2.70;;;;;;;;;;5072374;28;20476;-71
2023/10/15 05:31:40;;;;;;;55.57;2.37;;;;;;;;;;5071320;28;20446;-71
2023/10/15 05:34:09;;;;;;;56.27;2.23;;;;;;;;;;5062719;28;20457;-71
2023/10/15 05:36:36;;;;;;;57.77;3.43;;;;;;;;;;5054555;28;20453;-71
2023/10/15 05:39:04;;;;;;;56.30;2.30;;;;;;;;;;5054155;28;20518;-71
2023/10/15 05:41:32;;;;;;;56.63;2.90;;;;;;;;;;5054367;28;20452;-71
2023/10/15 05:43:59;;;;;;;56.17;2.43;;;;;;;;;;5053994;28;20603;-71
2023/10/15 05:46:27;;;;;;;56.40;2.40;;;;;;;;;;5053999;28;20447;-71
2023/10/15 05:48:54;;;;;;;55.83;2.40;;;;;;;;;;5053858;28;20965;-72
2023/10/15 05:51:23;;;;;;;56.40;2.60;;;;;;;;;;5053696;28;20452;-71
2023/10/15 05:53:50;;;;;;;56.17;2.30;;;;;;;;;;5053761;28;20440;-71
2023/10/15 05:56:18;;;;;;;56.17;2.40;;;;;;;;;;5053757;28;20448;-71
2023/10/15 05:58:45;;;;;;;55.97;2.10;;;;;;;;;;5053232;28;20492;-71
2023/10/15 06:01:12;;;;;;;56.50;2.40;;;;;;;;;;5052757;28;20453;-71
2023/10/15 06:03:40;;;;;;;56.30;2.60;;;;;;;;;;5053360;28;20488;-71
2023/10/15 06:06:07;;;;;;;56.27;2.50;;;;;;;;;;5053564;28;20445;-71
2023/10/15 06:08:36;;;;;;;55.97;2.50;;;;;;;;;;5053876;28;20469;-71
2023/10/15 06:11:03;;;;;;;56.33;2.30;;;;;;;;;;5053810;28;20954;-71
2023/10/15 06:13:30;;;;;;;56.50;2.23;;;;;;;;;;5053714;28;20490;-71
2023/10/15 06:15:57;;;;;;;56.27;2.50;;;;;;;;;;5053885;28;20440;-72
2023/10/15 06:18:24;;;;;;;56.03;2.40;;;;;;;;;;5054061;28;20514;-71
2023/10/15 06:20:51;;;;;;;55.97;2.33;;;;;;;;;;5054366;28;20448;-71
2023/10/15 06:23:19;;;;;;;55.93;2.20;;;;;;;;;;5053980;28;20496;-71
2023/10/15 06:25:47;;;;;;;56.30;2.40;;;;;;;;;;5053729;28;20457;-71
2023/10/15 06:28:14;;;;;;;55.87;2.10;;;;;;;;;;5054745;28;20449;-71
2023/10/15 06:30:43;;;;;;;56.30;2.90;;;;;;;;;;5055032;28;20855;-71
2023/10/15 06:33:11;;;;;;;55.80;2.30;;;;;;;;;;5055622;28;20444;-71
2023/10/15 06:35:40;;;;;;;55.87;2.20;;;;;;;;;;5054651;28;20514;-71
2023/10/15 06:38:07;;;;;;;56.80;3.20;;;;;;;;;;5054799;28;20449;-71
2023/10/15 06:40:35;;;;;;;56.20;2.37;;;;;;;;;;5054333;28;20448;-71
2023/10/15 06:43:03;;;;;;;56.07;2.27;;;;;;;;;;5053098;28;20575;-71
2023/10/15 06:45:31;;;;;;;56.00;2.33;;;;;;;;;;5053040;28;20452;-71
2023/10/15 06:48:00;;;;;;;56.17;2.57;;;;;;;;;;5053418;28;20457;-71
2023/10/15 06:50:27;;;;;;;55.97;2.50;;;;;;;;;;5052510;28;20841;-71
2023/10/15 06:52:54;;;;;;;56.40;2.40;;;;;;;;;;5052930;28;20461;-71
2023/10/15 06:55:22;;;;;;;56.07;2.60;;;;;;;;;;5052563;28;20460;-71
2023/10/15 06:57:49;;;;;;;56.23;2.60;;;;;;;;;;5052397;28;20453;-70
2023/10/15 07:00:22;;;;;;;56.07;2.53;;;;;;;;;;5052585;28;20483;-71
2023/10/15 07:02:49;;;;;;;56.20;2.30;;;;;;;;;;5052275;28;20456;-71
2023/10/15 07:05:17;;;;;;;56.00;2.40;;;;;;;;;;5052642;28;20460;-71
2023/10/15 07:07:45;;;;;;;56.17;2.40;;;;;;;;;;5053165;28;20455;-70
2023/10/15 07:10:15;;;;;;;56.20;2.33;;;;;;;;;;5051887;28;20470;-71
2023/10/15 07:12:42;;;;;;;55.87;2.27;;;;;;;;;;5052242;28;20457;-71
2023/10/15 07:15:10;;;;;;;56.20;2.20;;;;;;;;;;5052278;28;20453;-71
2023/10/15 07:17:39;;;;;;;57.37;3.23;;;;;;;;;;5051914;28;20933;-71
2023/10/15 07:20:14;;;;;;;55.97;2.23;;;;;;;;;;5051938;28;20476;-71
2023/10/15 07:22:41;;;;;;;55.93;2.10;;;;;;;;;;5044645;28;20794;-71
2023/10/15 07:25:09;;;;;;;56.43;2.20;;;;;;;;;;5051852;28;20492;-71
2023/10/15 07:27:36;;;;;;;56.10;2.10;;;;;;;;;;5050322;28;20845;-71
2023/10/15 07:30:03;;;;;;;56.30;2.07;;;;;;;;;;5045647;28;20465;-71
2023/10/15 07:32:30;;;;;;;56.07;1.90;;;;;;;;;;5047789;28;20940;-70
2023/10/15 07:34:59;;;;;;;56.07;1.80;;;;;;;;;;5051682;28;20446;-71
2023/10/15 07:37:28;;;;;;;56.13;2.00;;;;;;;;;;5051412;28;20454;-71
2023/10/15 07:39:55;;;;;;;56.37;2.83;;;;;;;;;;5051422;28;20477;-71
2023/10/15 07:42:23;;;;;;;55.93;1.93;;;;;;;;;;5051332;28;20485;-71
2023/10/15 07:44:50;;;;;;;56.30;2.00;;;;;;;;;;5051450;28;20492;-71
2023/10/15 07:47:17;;;;;;;55.67;1.87;;;;;;;;;;5051415;28;20448;-71
2023/10/15 07:49:45;;;;;;;56.17;2.10;;;;;;;;;;5051698;28;20465;-71
2023/10/15 07:52:16;;;;;;;56.57;3.20;;;;;;;;;;5051181;28;20515;-71
2023/10/15 07:54:43;;;;;;;57.07;2.93;;;;;;;;;;5051184;28;20531;-72
2023/10/15 07:57:12;;;;;;;55.77;2.30;;;;;;;;;;5051177;28;20956;-70
2023/10/15 07:59:39;;;;;;;56.10;2.20;;;;;;;;;;5051188;28;20511;-72
2023/10/15 08:02:07;;;;;;;55.67;2.00;;;;;;;;;;5051136;28;20465;-71
2023/10/15 08:04:35;;;;;;;55.93;2.10;;;;;;;;;;5050857;28;20487;-71
2023/10/15 08:07:02;;;;;;;55.93;2.10;;;;;;;;;;5051320;28;20473;-71
2023/10/15 08:09:30;;;;;;;56.10;2.20;;;;;;;;;;5050866;28;20475;-71
2023/10/15 08:11:58;;;;;;;56.03;2.40;;;;;;;;;;5051017;28;20460;-71
2023/10/15 08:14:25;;;;;;;56.17;2.23;;;;;;;;;;5050864;28;20444;-72
2023/10/15 08:16:52;;;;;;;55.97;2.13;;;;;;;;;;5050931;28;20455;-71
2023/10/15 08:19:19;;;;;;;56.10;2.00;;;;;;;;;;5050934;28;20479;-71
2023/10/15 08:21:46;;;;;;;57.20;2.47;;;;;;;;;;5050904;28;20445;-71
2023/10/15 08:24:14;;;;;;;56.13;2.00;;;;;;;;;;5050223;28;20500;-71
2023/10/15 08:26:43;;;;;;;57.47;2.83;;;;;;;;;;5050961;28;20478;-71
2023/10/15 08:29:10;;;;;;;57.23;2.20;;;;;;;;;;5050669;28;20464;-71
2023/10/15 08:31:38;;;;;;;55.87;2.00;;;;;;;;;;5050579;28;20448;-71
2023/10/15 08:34:05;;;;;;;56.27;2.30;;;;;;;;;;5051165;28;20438;-71
2023/10/15 08:36:32;;;;;;;55.50;2.00;;;;;;;;;;5050783;28;20928;-71
2023/10/15 08:39:03;;;;;;;55.83;2.00;;;;;;;;;;5050716;28;20981;-71
2023/10/15 08:41:31;;;;;;;56.00;2.30;;;;;;;;;;5051044;28;20545;-71
2023/10/15 08:43:59;;;;;;;56.30;2.00;;;;;;;;;;5050458;28;20490;-71
2023/10/15 08:46:27;;;;;;;55.67;2.10;;;;;;;;;;5050912;28;20478;-71
2023/10/15 08:48:54;;;;;;;55.87;2.20;;;;;;;;;;5050707;28;20462;-72
2023/10/15 08:51:21;;;;;;;57.30;2.67;;;;;;;;;;5050634;28;20445;-72
2023/10/15 08:53:49;;;;;;;56.20;1.90;;;;;;;;;;5051081;28;20847;-72
2023/10/15 08:56:21;;;;;;;56.70;2.40;;;;;;;;;;5050430;28;20450;-72
2023/10/15 08:58:52;;;;;;;56.83;2.43;;;;;;;;;;5050439;28;20526;-71
2023/10/15 09:01:21;;;;;;;56.30;2.20;;;;;;;;;;5050649;28;20452;-71
2023/10/15 09:03:48;;;;;;;55.97;2.10;;;;;;;;;;5050464;28;20544;-72
2023/10/15 09:06:16;;;;;;;56.27;2.20;;;;;;;;;;5050522;28;20445;-71
2023/10/15 09:08:44;;;;;;;56.00;2.00;;;;;;;;;;5050510;28;20500;-72
2023/10/15 09:11:11;;;;;;;55.97;2.00;;;;;;;;;;5050461;28;20448;-72
2023/10/15 09:13:39;;;;;;;56.10;2.00;;;;;;;;;;5050450;28;20508;-71
2023/10/15 09:16:06;;;;;;;56.13;2.30;;;;;;;;;;5050632;28;20491;-71
2023/10/15 09:18:36;;;;;;;56.37;2.20;;;;;;;;;;5050615;28;20560;-72
2023/10/15 09:21:04;;;;;;;56.07;2.10;;;;;;;;;;5050759;28;20454;-72
2023/10/15 09:23:35;;;;;;;56.17;2.00;;;;;;;;;;5050249;28;20446;-72
2023/10/15 09:26:03;;;;;;;56.40;2.40;;;;;;;;;;5050637;28;20442;-71
2023/10/15 09:28:31;;;;;;;56.17;2.03;;;;;;;;;;5050697;28;20498;-72
2023/10/15 09:31:05;;;;;;;56.20;2.10;;;;;;;;;;5050201;28;20461;-71
2023/10/15 09:33:32;;;;;;;56.50;2.20;;;;;;;;;;5050864;28;20444;-72
2023/10/15 09:36:02;;;;;;;56.00;2.10;;;;;;;;;;5054128;28;20453;-71
2023/10/15 09:38:31;;;;;;;56.40;2.20;;;;;;;;;;5054080;28;20476;-72
2023/10/15 09:40:58;;;;;;;56.13;2.10;;;;;;;;;;5054006;28;20501;-72
2023/10/15 09:43:26;;;;;;;56.47;2.30;;;;;;;;;;5054169;28;20448;-72
2023/10/15 09:45:54;;;;;;;56.37;2.10;;;;;;;;;;5054061;28;21001;-72
2023/10/15 09:48:22;;;;;;;56.57;2.10;;;;;;;;;;5053661;28;20502;-73
2023/10/15 09:50:51;;;;;;;56.20;2.07;;;;;;;;;;5053660;28;20546;-72
2023/10/15 09:53:21;;;;;;;56.00;2.20;;;;;;;;;;5053975;28;20891;-73
2023/10/15 09:55:49;;;;;;;56.13;2.00;;;;;;;;;;5053824;28;20943;-72
2023/10/15 09:58:17;;;;;;;56.03;2.00;;;;;;;;;;5053960;28;20926;-73
2023/10/15 10:00:59;;;;;;;56.00;2.30;;;;;;;;;;5054056;28;20462;-72
2023/10/15 10:03:47;;;;;;;56.07;2.00;;;;;;;;;;5053443;28;20442;-72
2023/10/15 10:06:18;;;;;;;56.17;2.00;;;;;;;;;;5033025;28;20456;-72
2023/10/15 10:08:58;;;;;;;56.17;2.20;;;;;;;;;;5053611;28;20479;-72
2023/10/15 10:11:34;;;;;;;56.07;2.10;;;;;;;;;;5053475;28;20453;-72
2023/10/15 10:14:09;;;;;;;56.23;1.97;;;;;;;;;;5053462;28;20444;-73
2023/10/15 10:16:36;;;;;;;56.10;2.10;;;;;;;;;;5053317;28;20451;-72
2023/10/15 10:19:03;;;;;;;55.97;1.90;;;;;;;;;;5053101;28;20463;-73
2023/10/15 10:21:31;;;;;;;56.40;2.20;;;;;;;;;;5053355;28;20810;-73
2023/10/15 10:24:02;;;;;;;56.70;2.20;;;;;;;;;;5052969;28;20453;-73
2023/10/15 10:26:33;;;;;;;56.40;2.10;;;;;;;;;;5053074;28;20458;-72
2023/10/15 10:29:01;;;;;;;56.27;2.10;;;;;;;;;;5052941;28;20475;-72
2023/10/15 10:31:30;;;;;;;56.20;2.10;;;;;;;;;;5052730;28;20452;-72
2023/10/15 10:34:01;;;;;;;56.07;1.87;;;;;;;;;;5052735;28;20954;-73
2023/10/15 10:36:30;;;;;;;57.23;2.10;;;;;;;;;;5052685;28;20456;-73
2023/10/15 10:38:59;;;;;;;56.30;1.97;;;;;;;;;;5052882;28;20508;-72
2023/10/15 10:41:35;;;;;;;55.83;2.00;;;;;;;;;;5052647;28;20514;-73
2023/10/15 10:44:03;;;;;;;56.13;2.07;;;;;;;;;;5052723;28;20440;-72
2023/10/15 10:46:30;;;;;;;55.97;2.10;;;;;;;;;;5051992;28;20449;-72
2023/10/15 10:49:03;;;;;;;56.27;2.07;;;;;;;;;;5052421;28;20867;-72
2023/10/15 10:51:33;;;;;;;56.17;2.10;;;;;;;;;;5052387;28;20490;-72
2023/10/15 10:54:19;;;;;;;56.37;2.17;;;;;;;;;;5052230;28;20978;-72
2023/10/15 10:56:58;;;;;;;56.37;2.30;;;;;;;;;;5052464;28;20749;-72
2023/10/15 10:59:25;;;;;;;56.57;2.30;;;;;;;;;;5051960;28;20972;-72
2023/10/15 11:01:52;;;;;;;56.27;2.20;;;;;;;;;;5052240;28;20457;-72
2023/10/15 11:04:19;;;;;;;56.37;2.00;;;;;;;;;;5052227;28;20444;-72
2023/10/15 11:06:48;;;;;;;56.43;2.13;;;;;;;;;;5052325;28;20448;-72
2023/10/15 11:09:16;;;;;;;56.30;2.00;;;;;;;;;;5052134;28;20472;-72
2023/10/15 11:11:44;;;;;;;56.57;2.60;;;;;;;;;;5051983;28;20448;-72
2023/10/15 11:14:12;;;;;;;56.43;2.30;;;;;;;;;;5052005;28;20456;-72
2023/10/15 11:16:40;;;;;;;56.77;2.30;;;;;;;;;;5051929;28;20462;-72
2023/10/15 11:19:14;;;;;;;56.37;2.10;;;;;;;;;;5051896;28;20473;-72
2023/10/15 11:21:42;;;;;;;56.37;2.17;;;;;;;;;;5051959;28;20460;-72
2023/10/15 11:24:09;;;;;;;56.47;2.00;;;;;;;;;;5051899;28;20494;-72
2023/10/15 11:26:37;;;;;;;56.40;2.30;;;;;;;;;;5051703;28;20536;-73
2023/10/15 11:29:05;;;;;;;55.93;2.10;;;;;;;;;;5051805;28;20468;-72
2023/10/15 11:31:34;;;;;;;56.07;1.87;;;;;;;;;;5051954;28;20455;-72
2023/10/15 11:34:01;;;;;;;56.50;2.00;;;;;;;;;;5051576;28;20451;-71
2023/10/15 11:36:34;;;;;;;56.10;1.80;;;;;;;;;;5051644;28;20501;-72
2023/10/15 11:39:03;;;;;;;56.07;1.70;;;;;;;;;;5051452;28;20476;-72
2023/10/15 11:41:32;;;;;;;56.20;1.80;;;;;;;;;;5051440;28;21027;-73
2023/10/15 11:44:03;;;;;;;55.57;1.63;;;;;;;;;;5051649;28;20508;-73
2023/10/15 11:46:30;;;;;;;56.00;1.80;;;;;;;;;;5051312;28;20486;-70
2023/10/15 11:49:01;;;;;;;55.97;1.80;;;;;;;;;;5051181;28;20472;-72
2023/10/15 11:51:29;;;;;;;56.00;1.77;;;;;;;;;;5051386;28;20824;-70
2023/10/15 11:53:57;;;;;;;56.27;1.83;;;;;;;;;;5051533;28;20447;-73
2023/10/15 11:56:26;;;;;;;56.27;1.90;;;;;;;;;;5051389;28;20507;-72
2023/10/15 11:58:54;;;;;;;56.40;2.20;;;;;;;;;;5050398;28;20483;-72
2023/10/15 12:01:23;;;;;;;56.03;2.00;;;;;;;;;;5051270;28;20467;-73
2023/10/15 12:03:50;;;;;;;56.80;2.30;;;;;;;;;;5051148;28;20451;-72
2023/10/15 12:06:18;;;;;;;56.50;2.10;;;;;;;;;;5051083;28;20491;-72
2023/10/15 12:08:45;;;;;;;57.07;2.53;;;;;;;;;;5050981;28;21069;-72
2023/10/15 12:11:14;;;;;;;56.40;2.33;;;;;;;;;;5051235;28;20809;-72
2023/10/15 12:13:44;;;;;;;56.20;2.40;;;;;;;;;;5051048;28;20452;-72
2023/10/15 12:16:11;;;;;;;55.67;1.80;;;;;;;;;;5050979;28;20458;-72
2023/10/15 12:18:39;;;;;;;55.47;1.90;;;;;;;;;;5050685;28;20481;-72
2023/10/15 12:21:07;;;;;;;55.67;1.73;;;;;;;;;;5051087;28;20452;-73
2023/10/15 12:23:35;;;;;;;55.63;1.73;;;;;;;;;;5050712;28;20451;-73
2023/10/15 12:26:07;;;;;;;55.90;1.80;;;;;;;;;;5050926;28;20490;-72
2023/10/15 12:28:43;;;;;;;55.27;1.77;;;;;;;;;;5050924;28;20554;-73
2023/10/15 12:31:10;;;;;;;55.70;1.80;;;;;;;;;;5050748;28;20558;-73
2023/10/15 12:33:38;;;;;;;56.03;1.80;;;;;;;;;;5050816;28;20494;-73
2023/10/15 12:36:07;;;;;;;56.07;2.10;;;;;;;;;;5050828;28;20534;-72
2023/10/15 12:38:35;;;;;;;55.83;1.60;;;;;;;;;;5050585;28;20975;-72
2023/10/15 12:41:04;;;;;;;56.20;2.20;;;;;;;;;;5050856;28;20540;-72
2023/10/15 12:43:32;;;;;;;56.10;2.00;;;;;;;;;;5050446;28;20443;-72
2023/10/15 12:46:00;;;;;;;56.20;2.30;;;;;;;;;;5050794;28;20485;-73
2023/10/15 12:48:29;;;;;;;56.07;2.10;;;;;;;;;;5050701;28;20506;-72
2023/10/15 12:50:56;;;;;;;56.70;2.83;;;;;;;;;;5050778;28;20470;-72
2023/10/15 12:53:24;;;;;;;57.77;2.00;;;;;;;;;;5050701;28;20482;-72
2023/10/15 12:55:52;;;;;;;56.27;2.30;;;;;;;;;;5050796;28;20445;-72
2023/10/15 12:58:20;;;;;;;56.37;2.30;;;;;;;;;;5050551;28;20448;-72
2023/10/15 13:00:51;;;;;;;56.17;2.20;;;;;;;;;;5050361;28;20465;-72
2023/10/15 13:03:18;;;;;;;56.67;2.30;;;;;;;;;;5050362;28;20464;-72
2023/10/15 13:05:46;;;;;;;56.47;2.07;;;;;;;;;;5050546;28;20488;-73
2023/10/15 13:08:13;;;;;;;56.47;2.30;;;;;;;;;;5050500;28;20454;-73
2023/10/15 13:10:41;;;;;;;56.37;2.10;;;;;;;;;;5053947;28;20448;-73
2023/10/15 13:13:09;;;;;;;56.27;2.30;;;;;;;;;;5054585;28;20453;-73
2023/10/15 13:15:37;;;;;;;56.63;2.60;;;;;;;;;;5051752;28;20436;-72
2023/10/15 13:18:05;;;;;;;56.47;2.40;;;;;;;;;;5052993;28;20455;-73
2023/10/15 13:20:32;;;;;;;59.37;3.10;;;;;;;;;;5053332;28;20474;-71
2023/10/15 13:22:59;;;;;;;56.27;2.23;;;;;;;;;;5053702;28;20447;-72
2023/10/15 13:25:27;;;;;;;56.50;2.50;;;;;;;;;;5054021;28;20480;-72
2023/10/15 13:27:54;;;;;;;57.27;2.40;;;;;;;;;;5054396;28;20454;-72
2023/10/15 13:30:24;;;;;;;56.37;2.20;;;;;;;;;;5054086;28;20533;-72
2023/10/15 13:32:52;;;;;;;56.27;2.20;;;;;;;;;;5046142;28;20446;-72
2023/10/15 13:35:19;;;;;;;56.47;2.20;;;;;;;;;;5054058;28;20477;-72
2023/10/15 13:37:47;;;;;;;56.27;2.20;;;;;;;;;;5053772;28;21057;-72
2023/10/15 13:40:15;;;;;;;56.17;2.10;;;;;;;;;;5053961;28;20478;-72
2023/10/15 13:42:45;;;;;;;56.60;2.20;;;;;;;;;;5053823;28;20460;-72
2023/10/15 13:45:12;;;;;;;56.23;2.10;;;;;;;;;;5053877;28;20488;-72
2023/10/15 13:47:40;;;;;;;56.13;2.00;;;;;;;;;;5053701;28;20538;-70
2023/10/15 13:50:09;;;;;;;55.93;1.80;;;;;;;;;;5053573;28;21007;-70
2023/10/15 13:52:37;;;;;;;55.80;1.70;;;;;;;;;;5053366;28;20451;-72
2023/10/15 13:55:05;;;;;;;56.10;2.00;;;;;;;;;;5053717;28;20460;-69
2023/10/15 13:57:32;;;;;;;55.93;2.23;;;;;;;;;;5053559;28;20863;-70
2023/10/15 13:59:59;;;;;;;56.00;1.80;;;;;;;;;;5053334;28;20471;-72
2023/10/15 14:02:26;;;;;;;55.43;1.60;;;;;;;;;;5053254;28;20512;-70
2023/10/15 14:04:55;;;;;;;56.00;1.80;;;;;;;;;;5053321;28;20447;-70
2023/10/15 14:07:23;;;;;;;55.70;1.70;;;;;;;;;;5053763;28;20564;-71
2023/10/15 14:09:50;;;;;;;55.50;1.80;;;;;;;;;;5053373;28;20473;-72
2023/10/15 14:12:18;;;;;;;55.90;2.10;;;;;;;;;;5053304;28;20444;-72
2023/10/15 14:14:45;;;;;;;56.23;2.17;;;;;;;;;;5053219;28;20545;-72
2023/10/15 14:17:12;;;;;;;56.70;2.50;;;;;;;;;;5053264;28;20445;-72
2023/10/15 14:19:41;;;;;;;56.07;2.03;;;;;;;;;;5052707;28;20572;-72
2023/10/15 14:22:09;;;;;;;56.40;1.90;;;;;;;;;;5052426;28;20823;-71
2023/10/15 14:24:36;;;;;;;56.47;2.53;;;;;;;;;;5053173;28;20447;-72
2023/10/15 14:27:04;;;;;;;56.13;2.10;;;;;;;;;;5053065;28;20480;-72
2023/10/15 14:29:32;;;;;;;56.17;2.20;;;;;;;;;;5052911;28;20467;-72
2023/10/15 14:31:59;;;;;;;56.20;1.90;;;;;;;;;;5052739;28;20448;-72
2023/10/15 14:34:27;;;;;;;56.50;2.30;;;;;;;;;;5052857;28;20940;-72
2023/10/15 14:36:57;;;;;;;56.50;2.47;;;;;;;;;;5044905;28;20535;-71
2023/10/15 14:39:27;;;;;;;57.77;3.50;;;;;;;;;;5053178;28;20468;-72
2023/10/15 14:41:55;;;;;;;56.30;2.50;;;;;;;;;;5052743;28;20448;-72
2023/10/15 14:44:22;;;;;;;56.40;1.97;;;;;;;;;;5052767;28;20620;-72
2023/10/15 14:46:49;;;;;;;56.17;2.17;;;;;;;;;;5052491;28;20958;-72